sensor_id;sensor_type;location;lat;lon;timestamp;pressure;altitude;pressure_sealevel;temperature;humidity
59289;BME280;45056;47.602;9.886;2023-02-16T00:01:16;93884.34;;;3.00;54.33
59289;BME280;45056;47.602;9.886;2023-02-16T00:03:47;93873.97;;;2.99;54.54
59289;BME280;45056;47.602;9.886;2023-02-16T00:06:15;93886.63;;;2.98;54.51
59289;BME280;45056;47.602;9.886;2023-02-16T00:08:45;93877.81;;;2.98;54.68
59289;BME280;45056;47.602;9.886;2023-02-16T00:11:18;93880.06;;;2.96;54.71
59289;BME280;45056;47.602;9.886;2023-02-16T00:14:10;93881.59;;;2.93;54.64
59289;BME280;45056;47.602;9.886;2023-02-16T00:16:39;93885.78;;;2.91;54.60
59289;BME280;45056;47.602;9.886;2023-02-16T00:19:20;93881.19;;;2.91;54.64
59289;BME280;45056;47.602;9.886;2023-02-16T00:21:52;93886.56;;;2.91;54.58
59289;BME280;45056;47.602;9.886;2023-02-16T00:24:23;93874.66;;;2.92;54.69
59289;BME280;45056;47.602;9.886;2023-02-16T00:26:52;93880.03;;;2.92;54.68
59289;BME280;45056;47.602;9.886;2023-02-16T00:29:25;93880.03;;;2.92;54.43
59289;BME280;45056;47.602;9.886;2023-02-16T00:31:59;93872.72;;;2.93;54.52
59289;BME280;45056;47.602;9.886;2023-02-16T00:34:31;93876.59;;;2.95;54.34
59289;BME280;45056;47.602;9.886;2023-02-16T00:37:04;93875.81;;;2.95;54.57
59289;BME280;45056;47.602;9.886;2023-02-16T00:39:33;93874.69;;;2.96;54.77
59289;BME280;45056;47.602;9.886;2023-02-16T00:42:04;93872.78;;;2.96;54.42
59289;BME280;45056;47.602;9.886;2023-02-16T00:44:42;93873.13;;;2.95;54.54
59289;BME280;45056;47.602;9.886;2023-02-16T00:47:17;93877.75;;;2.94;54.62
59289;BME280;45056;47.602;9.886;2023-02-16T00:49:50;93872.38;;;2.94;54.58
59289;BME280;45056;47.602;9.886;2023-02-16T00:52:29;93873.53;;;2.93;54.67
59289;BME280;45056;47.602;9.886;2023-02-16T00:55:01;93870.03;;;2.93;54.54
59289;BME280;45056;47.602;9.886;2023-02-16T00:57:34;93877.72;;;2.91;54.70
59289;BME280;45056;47.602;9.886;2023-02-16T01:00:14;93877.31;;;2.88;54.65
59289;BME280;45056;47.602;9.886;2023-02-16T01:02:50;93868.84;;;2.86;54.68
59289;BME280;45056;47.602;9.886;2023-02-16T01:05:20;93873.81;;;2.84;54.42
59289;BME280;45056;47.602;9.886;2023-02-16T01:07:48;93866.50;;;2.81;54.66
59289;BME280;45056;47.602;9.886;2023-02-16T01:10:35;93872.22;;;2.80;54.49
59289;BME280;45056;47.602;9.886;2023-02-16T01:13:35;93869.91;;;2.78;54.64
59289;BME280;45056;47.602;9.886;2023-02-16T01:16:20;93873.75;;;2.77;54.50
59289;BME280;45056;47.602;9.886;2023-02-16T01:18:50;93876.38;;;2.73;54.72
59289;BME280;45056;47.602;9.886;2023-02-16T01:21:19;93873.69;;;2.73;54.57
59289;BME280;45056;47.602;9.886;2023-02-16T01:23:48;93869.88;;;2.74;54.62
59289;BME280;45056;47.602;9.886;2023-02-16T01:26:18;93868.31;;;2.73;54.78
59289;BME280;45056;47.602;9.886;2023-02-16T01:28:47;93861.03;;;2.74;54.56
59289;BME280;45056;47.602;9.886;2023-02-16T01:31:17;93851.44;;;2.73;54.59
59289;BME280;45056;47.602;9.886;2023-02-16T01:33:45;93857.56;;;2.73;54.63
59289;BME280;45056;47.602;9.886;2023-02-16T01:36:22;93858.34;;;2.74;54.67
59289;BME280;45056;47.602;9.886;2023-02-16T01:38:52;93857.56;;;2.73;54.72
59289;BME280;45056;47.602;9.886;2023-02-16T01:41:36;93859.84;;;2.71;54.51
59289;BME280;45056;47.602;9.886;2023-02-16T01:44:14;93849.50;;;2.70;54.46
59289;BME280;45056;47.602;9.886;2023-02-16T01:46:52;93858.69;;;2.69;54.60
59289;BME280;45056;47.602;9.886;2023-02-16T01:49:26;93853.69;;;2.67;54.43
59289;BME280;45056;47.602;9.886;2023-02-16T01:51:59;93853.69;;;2.67;54.61
59289;BME280;45056;47.602;9.886;2023-02-16T01:54:38;93849.84;;;2.68;54.61
59289;BME280;45056;47.602;9.886;2023-02-16T01:57:22;93851.00;;;2.67;54.62
59289;BME280;45056;47.602;9.886;2023-02-16T02:00:08;93849.44;;;2.66;54.68
59289;BME280;45056;47.602;9.886;2023-02-16T02:02:47;93854.81;;;2.66;54.97
59289;BME280;45056;47.602;9.886;2023-02-16T02:05:25;93850.22;;;2.67;54.97
59289;BME280;45056;47.602;9.886;2023-02-16T02:08:08;93851.72;;;2.64;54.67
59289;BME280;45056;47.602;9.886;2023-02-16T02:10:54;93858.25;;;2.63;54.80
59289;BME280;45056;47.602;9.886;2023-02-16T02:13:38;93859.38;;;2.62;54.86
59289;BME280;45056;47.602;9.886;2023-02-16T02:16:11;93854.38;;;2.60;54.50
59289;BME280;45056;47.602;9.886;2023-02-16T02:18:44;93854.75;;;2.59;54.53
59289;BME280;45056;47.602;9.886;2023-02-16T02:21:35;93851.28;;;2.58;54.77
59289;BME280;45056;47.602;9.886;2023-02-16T02:25:10;93855.09;;;2.57;54.99
59289;BME280;45056;47.602;9.886;2023-02-16T02:28:11;93842.44;;;2.58;54.95
59289;BME280;45056;47.602;9.886;2023-02-16T02:30:50;93850.88;;;2.56;55.06
59289;BME280;45056;47.602;9.886;2023-02-16T02:33:40;93851.25;;;2.55;55.26
59289;BME280;45056;47.602;9.886;2023-02-16T02:36:26;93847.78;;;2.54;55.03
59289;BME280;45056;47.602;9.886;2023-02-16T02:39:17;93848.16;;;2.53;55.17
59289;BME280;45056;47.602;9.886;2023-02-16T02:42:02;93852.00;;;2.52;55.23
59289;BME280;45056;47.602;9.886;2023-02-16T02:44:45;93850.44;;;2.51;55.29
59289;BME280;45056;47.602;9.886;2023-02-16T02:47:16;93845.81;;;2.51;55.23
59289;BME280;45056;47.602;9.886;2023-02-16T02:49:49;93838.16;;;2.50;55.26
59289;BME280;45056;47.602;9.886;2023-02-16T02:52:19;93845.44;;;2.49;55.65
59289;BME280;45056;47.602;9.886;2023-02-16T02:54:49;93844.63;;;2.49;55.42
59289;BME280;45056;47.602;9.886;2023-02-16T02:57:48;93843.53;;;2.50;55.60
59289;BME280;45056;47.602;9.886;2023-02-16T03:00:39;93840.84;;;2.50;55.24
59289;BME280;45056;47.602;9.886;2023-02-16T03:03:18;93847.38;;;2.52;55.21
59289;BME280;45056;47.602;9.886;2023-02-16T03:06:01;93842.78;;;2.53;55.41
59289;BME280;45056;47.602;9.886;2023-02-16T03:08:39;93840.91;;;2.57;55.26
59289;BME280;45056;47.602;9.886;2023-02-16T03:11:14;93847.91;;;2.65;54.98
59289;BME280;45056;47.602;9.886;2023-02-16T03:14:12;93841.03;;;2.71;54.78
59289;BME280;45056;47.602;9.886;2023-02-16T03:16:48;93844.13;;;2.73;54.22
59289;BME280;45056;47.602;9.886;2023-02-16T03:19:42;93843.38;;;2.73;54.31
59289;BME280;45056;47.602;9.886;2023-02-16T03:22:31;93846.06;;;2.73;54.49
59289;BME280;45056;47.602;9.886;2023-02-16T03:25:23;93849.09;;;2.71;54.40
59289;BME280;45056;47.602;9.886;2023-02-16T03:28:19;93858.69;;;2.69;54.50
59289;BME280;45056;47.602;9.886;2023-02-16T03:31:13;93867.91;;;2.68;54.67
59289;BME280;45056;47.602;9.886;2023-02-16T03:33:48;93864.41;;;2.67;54.65
59289;BME280;45056;47.602;9.886;2023-02-16T03:36:20;93854.47;;;2.68;54.79
59289;BME280;45056;47.602;9.886;2023-02-16T03:38:50;93857.16;;;2.68;54.80
59289;BME280;45056;47.602;9.886;2023-02-16T03:41:18;93855.59;;;2.67;54.82
59289;BME280;45056;47.602;9.886;2023-02-16T03:43:46;93862.13;;;2.66;54.86
59289;BME280;45056;47.602;9.886;2023-02-16T03:46:14;93862.47;;;2.64;54.95
59289;BME280;45056;47.602;9.886;2023-02-16T03:48:43;93855.16;;;2.61;54.66
59289;BME280;45056;47.602;9.886;2023-02-16T03:51:12;93858.19;;;2.59;54.86
59289;BME280;45056;47.602;9.886;2023-02-16T03:53:40;93862.81;;;2.59;54.92
59289;BME280;45056;47.602;9.886;2023-02-16T03:56:08;93858.56;;;2.58;54.65
59289;BME280;45056;47.602;9.886;2023-02-16T03:58:36;93861.25;;;2.58;54.68
59289;BME280;45056;47.602;9.886;2023-02-16T04:01:04;93863.53;;;2.56;55.05
59289;BME280;45056;47.602;9.886;2023-02-16T04:03:32;93860.47;;;2.54;55.11
59289;BME280;45056;47.602;9.886;2023-02-16T04:06:00;93861.19;;;2.51;55.09
59289;BME280;45056;47.602;9.886;2023-02-16T04:08:30;93862.34;;;2.50;54.88
59289;BME280;45056;47.602;9.886;2023-02-16T04:10:58;93869.59;;;2.49;55.14
59289;BME280;45056;47.602;9.886;2023-02-16T04:13:26;93878.00;;;2.48;54.98
59289;BME280;45056;47.602;9.886;2023-02-16T04:15:53;93877.25;;;2.47;54.80
59289;BME280;45056;47.602;9.886;2023-02-16T04:18:21;93876.84;;;2.45;55.11
59289;BME280;45056;47.602;9.886;2023-02-16T04:20:49;93877.19;;;2.43;54.88
59289;BME280;45056;47.602;9.886;2023-02-16T04:23:17;93878.34;;;2.42;54.97
59289;BME280;45056;47.602;9.886;2023-02-16T04:25:47;93876.03;;;2.41;54.78
59289;BME280;45056;47.602;9.886;2023-02-16T04:28:15;93874.84;;;2.38;54.96
59289;BME280;45056;47.602;9.886;2023-02-16T04:30:43;93886.38;;;2.39;54.88
59289;BME280;45056;47.602;9.886;2023-02-16T04:33:11;93884.03;;;2.37;55.05
59289;BME280;45056;47.602;9.886;2023-02-16T04:35:39;93886.31;;;2.35;55.13
59289;BME280;45056;47.602;9.886;2023-02-16T04:38:07;93889.38;;;2.34;55.12
59289;BME280;45056;47.602;9.886;2023-02-16T04:40:35;93887.06;;;2.32;55.18
59289;BME280;45056;47.602;9.886;2023-02-16T04:43:05;93892.44;;;2.32;55.33
59289;BME280;45056;47.602;9.886;2023-02-16T04:45:33;93895.47;;;2.30;55.39
59289;BME280;45056;47.602;9.886;2023-02-16T04:48:01;93884.72;;;2.30;55.21
59289;BME280;45056;47.602;9.886;2023-02-16T04:50:29;93890.09;;;2.30;55.42
59289;BME280;45056;47.602;9.886;2023-02-16T04:52:57;93892.03;;;2.30;55.24
59289;BME280;45056;47.602;9.886;2023-02-16T04:55:25;93886.66;;;2.30;55.46
59289;BME280;45056;47.602;9.886;2023-02-16T04:57:53;93884.72;;;2.30;55.26
59289;BME280;45056;47.602;9.886;2023-02-16T05:00:23;93886.28;;;2.31;55.47
59289;BME280;45056;47.602;9.886;2023-02-16T05:02:51;93886.69;;;2.34;55.31
59289;BME280;45056;47.602;9.886;2023-02-16T05:05:19;93882.88;;;2.35;55.38
59289;BME280;45056;47.602;9.886;2023-02-16T05:07:47;93893.63;;;2.35;55.52
59289;BME280;45056;47.602;9.886;2023-02-16T05:10:15;93887.88;;;2.36;55.44
59289;BME280;45056;47.602;9.886;2023-02-16T05:12:43;93884.44;;;2.36;55.20
59289;BME280;45056;47.602;9.886;2023-02-16T05:15:42;93894.03;;;2.37;55.23
59289;BME280;45056;47.602;9.886;2023-02-16T05:18:10;93891.34;;;2.37;55.32
59289;BME280;45056;47.602;9.886;2023-02-16T05:20:38;93894.78;;;2.37;55.33
59289;BME280;45056;47.602;9.886;2023-02-16T05:23:23;93899.41;;;2.37;55.25
59289;BME280;45056;47.602;9.886;2023-02-16T05:25:51;93903.22;;;2.36;55.47
59289;BME280;45056;47.602;9.886;2023-02-16T05:28:19;93906.25;;;2.34;55.21
59289;BME280;45056;47.602;9.886;2023-02-16T05:30:51;93911.63;;;2.34;55.17
59289;BME280;45056;47.602;9.886;2023-02-16T05:33:22;93904.72;;;2.33;55.47
59289;BME280;45056;47.602;9.886;2023-02-16T05:35:52;93908.53;;;2.32;55.50
59289;BME280;45056;47.602;9.886;2023-02-16T05:38:22;93916.22;;;2.34;55.47
59289;BME280;45056;47.602;9.886;2023-02-16T05:40:53;93912.44;;;2.35;55.24
59289;BME280;45056;47.602;9.886;2023-02-16T05:43:23;93917.78;;;2.35;55.54
59289;BME280;45056;47.602;9.886;2023-02-16T05:45:53;93920.47;;;2.35;55.57
59289;BME280;45056;47.602;9.886;2023-02-16T05:48:25;93914.72;;;2.36;55.71
59289;BME280;45056;47.602;9.886;2023-02-16T05:50:56;93917.41;;;2.36;55.64
59289;BME280;45056;47.602;9.886;2023-02-16T05:53:26;93922.44;;;2.38;55.73
59289;BME280;45056;47.602;9.886;2023-02-16T05:55:58;93923.97;;;2.39;55.83
59289;BME280;45056;47.602;9.886;2023-02-16T05:58:29;93925.88;;;2.38;55.45
59289;BME280;45056;47.602;9.886;2023-02-16T06:00:59;93922.44;;;2.38;55.69
59289;BME280;45056;47.602;9.886;2023-02-16T06:03:29;93925.88;;;2.38;55.75
59289;BME280;45056;47.602;9.886;2023-02-16T06:05:59;93931.63;;;2.37;55.58
59289;BME280;45056;47.602;9.886;2023-02-16T06:08:28;93933.53;;;2.36;55.55
59289;BME280;45056;47.602;9.886;2023-02-16T06:10:58;93935.47;;;2.36;55.71
59289;BME280;45056;47.602;9.886;2023-02-16T06:13:26;93927.75;;;2.34;55.55
59289;BME280;45056;47.602;9.886;2023-02-16T06:15:56;93928.53;;;2.35;55.68
59289;BME280;45056;47.602;9.886;2023-02-16T06:18:25;93934.66;;;2.35;55.64
59289;BME280;45056;47.602;9.886;2023-02-16T06:20:56;93929.28;;;2.35;55.48
59289;BME280;45056;47.602;9.886;2023-02-16T06:23:25;93928.16;;;2.36;55.79
59289;BME280;45056;47.602;9.886;2023-02-16T06:25:58;93931.63;;;2.37;55.89
59289;BME280;45056;47.602;9.886;2023-02-16T06:28:29;93927.41;;;2.36;55.68
59289;BME280;45056;47.602;9.886;2023-02-16T06:31:00;93938.16;;;2.36;55.97
59289;BME280;45056;47.602;9.886;2023-02-16T06:33:32;93933.53;;;2.36;56.34
59289;BME280;45056;47.602;9.886;2023-02-16T06:36:01;93936.63;;;2.38;56.19
59289;BME280;45056;47.602;9.886;2023-02-16T06:38:31;93942.00;;;2.38;56.19
59289;BME280;45056;47.602;9.886;2023-02-16T06:41:04;93938.97;;;2.40;56.38
59289;BME280;45056;47.602;9.886;2023-02-16T06:43:32;93944.75;;;2.42;56.14
59289;BME280;45056;47.602;9.886;2023-02-16T06:46:01;93945.16;;;2.44;56.03
59289;BME280;45056;47.602;9.886;2023-02-16T06:48:29;93941.72;;;2.47;56.17
59289;BME280;45056;47.602;9.886;2023-02-16T06:50:58;93940.25;;;2.50;56.07
59289;BME280;45056;47.602;9.886;2023-02-16T06:53:26;93941.41;;;2.52;56.21
59289;BME280;45056;47.602;9.886;2023-02-16T06:55:54;93941.81;;;2.54;56.26
59289;BME280;45056;47.602;9.886;2023-02-16T06:58:22;93946.09;;;2.59;56.18
59289;BME280;45056;47.602;9.886;2023-02-16T07:00:53;93948.06;;;2.62;56.18
59289;BME280;45056;47.602;9.886;2023-02-16T07:03:21;93947.38;;;2.69;56.09
59289;BME280;45056;47.602;9.886;2023-02-16T07:05:51;93942.81;;;2.73;56.28
59289;BME280;45056;47.602;9.886;2023-02-16T07:08:20;93955.53;;;2.80;56.13
59289;BME280;45056;47.602;9.886;2023-02-16T07:10:48;93954.44;;;2.84;56.25
59289;BME280;45056;47.602;9.886;2023-02-16T07:13:16;93953.75;;;2.91;56.16
59289;BME280;45056;47.602;9.886;2023-02-16T07:15:45;93956.91;;;2.97;55.74
59289;BME280;45056;47.602;9.886;2023-02-16T07:18:13;93951.97;;;3.02;56.23
59289;BME280;45056;47.602;9.886;2023-02-16T07:20:42;93962.78;;;3.10;55.87
59289;BME280;45056;47.602;9.886;2023-02-16T07:23:10;93962.50;;;3.18;56.21
59289;BME280;45056;47.602;9.886;2023-02-16T07:25:39;93967.94;;;3.26;56.04
59289;BME280;45056;47.602;9.886;2023-02-16T07:28:07;93966.09;;;3.34;56.14
59289;BME280;45056;47.602;9.886;2023-02-16T07:30:35;93960.03;;;3.40;55.79
59289;BME280;45056;47.602;9.886;2023-02-16T07:33:03;93962.41;;;3.49;55.92
59289;BME280;45056;47.602;9.886;2023-02-16T07:35:32;93954.41;;;3.56;55.98
59289;BME280;45056;47.602;9.886;2023-02-16T07:38:01;93960.25;;;3.66;55.82
59289;BME280;45056;47.602;9.886;2023-02-16T07:40:31;93966.09;;;3.75;55.80
59289;BME280;45056;47.602;9.886;2023-02-16T07:43:00;93966.97;;;3.86;55.63
59289;BME280;45056;47.602;9.886;2023-02-16T07:45:30;93972.44;;;3.97;55.43
59289;BME280;45056;47.602;9.886;2023-02-16T07:47:59;93970.97;;;4.07;55.80
59289;BME280;45056;47.602;9.886;2023-02-16T07:50:28;93980.25;;;4.17;55.52
59289;BME280;45056;47.602;9.886;2023-02-16T07:52:56;93982.63;;;4.26;55.62
59289;BME280;45056;47.602;9.886;2023-02-16T07:55:24;93980.34;;;4.31;55.47
59289;BME280;45056;47.602;9.886;2023-02-16T07:57:52;93978.84;;;4.38;55.32
59289;BME280;45056;47.602;9.886;2023-02-16T08:00:24;93984.28;;;4.45;55.34
59289;BME280;45056;47.602;9.886;2023-02-16T08:02:53;93978.16;;;4.52;55.42
59289;BME280;45056;47.602;9.886;2023-02-16T08:05:21;93975.09;;;4.57;55.16
59289;BME280;45056;47.602;9.886;2023-02-16T08:07:49;93981.28;;;4.61;55.34
59289;BME280;45056;47.602;9.886;2023-02-16T08:10:17;93987.84;;;4.67;55.04
59289;BME280;45056;47.602;9.886;2023-02-16T08:12:46;93983.28;;;4.71;54.86
59289;BME280;45056;47.602;9.886;2023-02-16T08:15:15;93977.91;;;4.79;54.85
59289;BME280;45056;47.602;9.886;2023-02-16T08:17:45;93984.88;;;4.87;54.93
59289;BME280;45056;47.602;9.886;2023-02-16T08:20:14;93972.94;;;4.95;54.62
59289;BME280;45056;47.602;9.886;2023-02-16T08:22:42;93983.41;;;5.04;54.62
59289;BME280;45056;47.602;9.886;2023-02-16T08:25:10;93985.75;;;5.13;54.92
59289;BME280;45056;47.602;9.886;2023-02-16T08:27:41;93981.56;;;5.30;54.53
59289;BME280;45056;47.602;9.886;2023-02-16T08:30:10;93972.38;;;5.63;54.46
59289;BME280;45056;47.602;9.886;2023-02-16T08:32:39;93978.97;;;6.06;53.70
59289;BME280;45056;47.602;9.886;2023-02-16T08:35:08;93972.75;;;6.45;53.13
59289;BME280;45056;47.602;9.886;2023-02-16T08:37:37;93964.56;;;6.74;51.95
59289;BME280;45056;47.602;9.886;2023-02-16T08:40:07;93971.44;;;6.97;51.13
59289;BME280;45056;47.602;9.886;2023-02-16T08:42:36;93971.72;;;7.21;50.53
59289;BME280;45056;47.602;9.886;2023-02-16T08:45:05;93967.72;;;7.47;49.76
59289;BME280;45056;47.602;9.886;2023-02-16T08:47:34;93964.03;;;7.76;49.13
59289;BME280;45056;47.602;9.886;2023-02-16T08:50:02;93969.25;;;8.05;48.77
59289;BME280;45056;47.602;9.886;2023-02-16T08:52:32;93970.19;;;8.33;48.00
59289;BME280;45056;47.602;9.886;2023-02-16T08:55:01;93974.91;;;8.67;46.68
59289;BME280;45056;47.602;9.886;2023-02-16T08:57:32;93967.97;;;9.01;45.62
59289;BME280;45056;47.602;9.886;2023-02-16T09:00:00;93976.94;;;9.29;44.38
59289;BME280;45056;47.602;9.886;2023-02-16T09:02:46;93977.09;;;9.45;44.08
59289;BME280;45056;47.602;9.886;2023-02-16T09:05:15;93986.66;;;9.57;43.87
59289;BME280;45056;47.602;9.886;2023-02-16T09:07:45;93982.22;;;9.71;43.29
59289;BME280;45056;47.602;9.886;2023-02-16T09:10:14;93988.25;;;9.82;43.41
59289;BME280;45056;47.602;9.886;2023-02-16T09:12:42;93983.38;;;9.97;42.84
59289;BME280;45056;47.602;9.886;2023-02-16T09:15:14;93985.09;;;10.11;42.69
59289;BME280;45056;47.602;9.886;2023-02-16T09:17:42;93992.31;;;10.21;42.49
59289;BME280;45056;47.602;9.886;2023-02-16T09:20:12;93990.22;;;10.33;42.51
59289;BME280;45056;47.602;9.886;2023-02-16T09:22:42;93980.69;;;10.45;41.89
59289;BME280;45056;47.602;9.886;2023-02-16T09:25:13;93977.09;;;10.51;41.15
59289;BME280;45056;47.602;9.886;2023-02-16T09:27:42;93984.72;;;10.60;41.07
59289;BME280;45056;47.602;9.886;2023-02-16T09:30:11;93981.81;;;10.71;40.75
59289;BME280;45056;47.602;9.886;2023-02-16T09:32:40;93982.00;;;10.80;40.24
59289;BME280;45056;47.602;9.886;2023-02-16T09:35:08;93994.31;;;10.89;40.08
59289;BME280;45056;47.602;9.886;2023-02-16T09:37:37;93992.56;;;10.99;39.68
59289;BME280;45056;47.602;9.886;2023-02-16T09:40:06;93986.88;;;11.13;39.11
59289;BME280;45056;47.602;9.886;2023-02-16T09:42:52;93986.66;;;11.24;39.01
59289;BME280;45056;47.602;9.886;2023-02-16T09:45:31;93992.28;;;11.33;38.78
59289;BME280;45056;47.602;9.886;2023-02-16T09:48:18;93984.13;;;11.33;38.21
59289;BME280;45056;47.602;9.886;2023-02-16T09:50:52;93988.03;;;11.32;38.25
59289;BME280;45056;47.602;9.886;2023-02-16T09:53:34;93987.59;;;11.34;37.31
59289;BME280;45056;47.602;9.886;2023-02-16T09:56:16;93991.81;;;11.38;37.41
59289;BME280;45056;47.602;9.886;2023-02-16T09:58:56;93992.09;;;11.44;37.37
59289;BME280;45056;47.602;9.886;2023-02-16T10:01:36;93985.34;;;11.49;37.17
59289;BME280;45056;47.602;9.886;2023-02-16T10:04:26;93990.66;;;11.56;37.05
59289;BME280;45056;47.602;9.886;2023-02-16T10:07:27;93995.13;;;11.66;36.96
59289;BME280;45056;47.602;9.886;2023-02-16T10:10:14;93996.41;;;11.78;36.64
59289;BME280;45056;47.602;9.886;2023-02-16T10:12:51;93991.94;;;11.88;36.65
59289;BME280;45056;47.602;9.886;2023-02-16T10:15:27;93982.72;;;11.98;35.99
59289;BME280;45056;47.602;9.886;2023-02-16T10:18:02;93991.88;;;12.08;36.24
59289;BME280;45056;47.602;9.886;2023-02-16T10:20:41;93988.22;;;12.15;35.62
59289;BME280;45056;47.602;9.886;2023-02-16T10:23:34;94000.50;;;12.23;35.49
59289;BME280;45056;47.602;9.886;2023-02-16T10:26:17;93994.53;;;12.29;35.30
59289;BME280;45056;47.602;9.886;2023-02-16T10:28:52;93995.63;;;12.31;35.21
59289;BME280;45056;47.602;9.886;2023-02-16T10:31:30;93989.34;;;12.34;35.10
59289;BME280;45056;47.602;9.886;2023-02-16T10:34:17;93993.50;;;12.39;34.85
59289;BME280;45056;47.602;9.886;2023-02-16T10:40:23;93990.16;;;12.48;34.50
59289;BME280;45056;47.602;9.886;2023-02-16T10:43:05;93999.38;;;12.54;34.57
59289;BME280;45056;47.602;9.886;2023-02-16T10:45:49;93985.13;;;12.63;34.54
59289;BME280;45056;47.602;9.886;2023-02-16T10:48:21;93987.66;;;12.70;34.22
59289;BME280;45056;47.602;9.886;2023-02-16T10:50:56;93987.13;;;12.75;34.44
59289;BME280;45056;47.602;9.886;2023-02-16T10:53:36;93987.72;;;12.83;34.32
59289;BME280;45056;47.602;9.886;2023-02-16T10:56:26;93973.44;;;12.92;34.69
59289;BME280;45056;47.602;9.886;2023-02-16T10:59:13;93977.09;;;13.02;34.03
59289;BME280;45056;47.602;9.886;2023-02-16T11:01:45;93978.00;;;13.11;33.43
59289;BME280;45056;47.602;9.886;2023-02-16T11:04:33;93974.97;;;13.22;33.67
59289;BME280;45056;47.602;9.886;2023-02-16T11:07:06;93973.91;;;13.33;33.43
59289;BME280;45056;47.602;9.886;2023-02-16T11:09:37;93969.25;;;13.46;33.76
59289;BME280;45056;47.602;9.886;2023-02-16T11:12:23;93973.88;;;13.62;33.25
59289;BME280;45056;47.602;9.886;2023-02-16T11:14:57;93971.13;;;13.75;32.22
59289;BME280;45056;47.602;9.886;2023-02-16T11:17:31;93969.50;;;13.78;32.50
59289;BME280;45056;47.602;9.886;2023-02-16T11:20:28;93966.88;;;13.87;32.68
59289;BME280;45056;47.602;9.886;2023-02-16T11:23:16;93967.75;;;13.97;31.85
59289;BME280;45056;47.602;9.886;2023-02-16T11:25:58;93974.84;;;14.07;32.23
59289;BME280;45056;47.602;9.886;2023-02-16T11:28:32;93959.53;;;14.23;32.47
59289;BME280;45056;47.602;9.886;2023-02-16T11:31:13;93961.47;;;14.35;31.10
59289;BME280;45056;47.602;9.886;2023-02-16T11:33:56;93958.50;;;14.42;31.59
59289;BME280;45056;47.602;9.886;2023-02-16T11:36:33;93953.81;;;14.43;31.15
59289;BME280;45056;47.602;9.886;2023-02-16T11:39:14;93950.75;;;14.41;31.79
59289;BME280;45056;47.602;9.886;2023-02-16T11:41:50;93950.94;;;14.47;31.03
59289;BME280;45056;47.602;9.886;2023-02-16T11:44:25;93943.25;;;14.54;31.40
59289;BME280;45056;47.602;9.886;2023-02-16T11:47:01;93948.16;;;14.60;30.94
59289;BME280;45056;47.602;9.886;2023-02-16T11:49:35;93944.41;;;14.66;30.61
59289;BME280;45056;47.602;9.886;2023-02-16T11:52:25;93945.72;;;14.75;29.94
59289;BME280;45056;47.602;9.886;2023-02-16T11:54:57;93941.03;;;14.75;29.32
59289;BME280;45056;47.602;9.886;2023-02-16T11:57:29;93939.81;;;14.76;29.62
59289;BME280;45056;47.602;9.886;2023-02-16T12:00:05;93930.50;;;14.74;29.70
59289;BME280;45056;47.602;9.886;2023-02-16T12:03:09;93925.66;;;14.78;29.86
59289;BME280;45056;47.602;9.886;2023-02-16T12:06:00;93929.25;;;14.88;29.52
59289;BME280;45056;47.602;9.886;2023-02-16T12:08:54;93919.22;;;14.94;29.31
59289;BME280;45056;47.602;9.886;2023-02-16T12:11:46;93919.44;;;14.99;29.36
59289;BME280;45056;47.602;9.886;2023-02-16T12:14:36;93917.22;;;15.07;29.38
59289;BME280;45056;47.602;9.886;2023-02-16T12:17:23;93915.09;;;15.11;29.12
59289;BME280;45056;47.602;9.886;2023-02-16T12:20:16;93910.25;;;15.15;29.83
59289;BME280;45056;47.602;9.886;2023-02-16T12:23:07;93903.59;;;15.26;29.96
59289;BME280;45056;47.602;9.886;2023-02-16T12:26:03;93907.94;;;15.36;29.09
59289;BME280;45056;47.602;9.886;2023-02-16T12:28:55;93905.22;;;15.46;29.09
59289;BME280;45056;47.602;9.886;2023-02-16T12:31:52;93910.44;;;15.53;28.61
59289;BME280;45056;47.602;9.886;2023-02-16T12:34:44;93905.25;;;15.55;28.39
59289;BME280;45056;47.602;9.886;2023-02-16T12:37:35;93898.00;;;15.61;28.74
59289;BME280;45056;47.602;9.886;2023-02-16T12:40:21;93891.59;;;15.64;28.80
59289;BME280;45056;47.602;9.886;2023-02-16T12:43:17;93897.09;;;15.64;29.05
59289;BME280;45056;47.602;9.886;2023-02-16T12:46:03;93887.50;;;15.69;29.53
59289;BME280;45056;47.602;9.886;2023-02-16T12:48:44;93880.19;;;15.75;28.96
59289;BME280;45056;47.602;9.886;2023-02-16T12:51:21;93876.09;;;15.80;28.60
59289;BME280;45056;47.602;9.886;2023-02-16T12:53:59;93874.28;;;15.86;28.86
59289;BME280;45056;47.602;9.886;2023-02-16T12:56:41;93867.03;;;15.92;28.07
59289;BME280;45056;47.602;9.886;2023-02-16T12:59:22;93874.50;;;15.92;27.86
59289;BME280;45056;47.602;9.886;2023-02-16T13:02:00;93864.28;;;15.92;27.23
59289;BME280;45056;47.602;9.886;2023-02-16T13:04:40;93862.59;;;15.95;27.13
59289;BME280;45056;47.602;9.886;2023-02-16T13:07:16;93857.59;;;15.93;27.38
59289;BME280;45056;47.602;9.886;2023-02-16T13:09:59;93856.38;;;15.94;27.63
59289;BME280;45056;47.602;9.886;2023-02-16T13:12:38;93855.91;;;16.05;29.21
59289;BME280;45056;47.602;9.886;2023-02-16T13:15:15;93848.63;;;16.21;29.59
59289;BME280;45056;47.602;9.886;2023-02-16T13:17:49;93844.81;;;16.37;29.53
59289;BME280;45056;47.602;9.886;2023-02-16T13:20:24;93850.31;;;16.46;28.92
59289;BME280;45056;47.602;9.886;2023-02-16T13:23:29;93848.81;;;16.54;28.89
59289;BME280;45056;47.602;9.886;2023-02-16T13:26:30;93842.53;;;16.63;28.61
59289;BME280;45056;47.602;9.886;2023-02-16T13:29:39;93840.53;;;16.73;28.34
59289;BME280;45056;47.602;9.886;2023-02-16T13:32:40;93836.56;;;16.74;28.26
59289;BME280;45056;47.602;9.886;2023-02-16T13:35:54;93834.28;;;16.72;28.13
59289;BME280;45056;47.602;9.886;2023-02-16T13:38:59;93823.75;;;16.71;27.60
59289;BME280;45056;47.602;9.886;2023-02-16T13:42:08;93824.06;;;16.64;27.75
59289;BME280;45056;47.602;9.886;2023-02-16T13:44:58;93830.94;;;16.59;27.87
59289;BME280;45056;47.602;9.886;2023-02-16T13:47:33;93832.00;;;16.52;27.83
59289;BME280;45056;47.602;9.886;2023-02-16T13:50:24;93838.56;;;16.46;27.66
59289;BME280;45056;47.602;9.886;2023-02-16T13:53:07;93832.47;;;16.41;27.80
59289;BME280;45056;47.602;9.886;2023-02-16T13:55:42;93827.72;;;16.42;28.00
59289;BME280;45056;47.602;9.886;2023-02-16T13:58:30;93831.69;;;16.41;27.91